sensor_id;sensor_type;location;lat;lon;timestamp;P1;durP1;ratioP1;P2;durP2;ratioP2
19621;SDS011;9958;33.196;-97.114;2023-04-10T00:00:34;2.00;;;1.85;;
19621;SDS011;9958;33.196;-97.114;2023-04-10T00:03:03;2.75;;;2.20;;
19621;SDS011;9958;33.196;-97.114;2023-04-10T00:05:33;4.18;;;2.22;;
19621;SDS011;9958;33.196;-97.114;2023-04-10T00:08:02;2.60;;;2.40;;
19621;SDS011;9958;33.196;-97.114;2023-04-10T00:10:30;2.78;;;2.30;;
19621;SDS011;9958;33.196;-97.114;2023-04-10T00:12:58;2.47;;;2.28;;
19621;SDS011;9958;33.196;-97.114;2023-04-10T00:15:28;2.42;;;2.22;;
19621;SDS011;9958;33.196;-97.114;2023-04-10T00:17:56;2.72;;;2.53;;
19621;SDS011;9958;33.196;-97.114;2023-04-10T00:20:24;2.45;;;2.25;;
19621;SDS011;9958;33.196;-97.114;2023-04-10T00:22:54;4.28;;;2.38;;
19621;SDS011;9958;33.196;-97.114;2023-04-10T00:25:23;3.35;;;2.33;;
19621;SDS011;9958;33.196;-97.114;2023-04-10T00:27:51;3.17;;;2.70;;
19621;SDS011;9958;33.196;-97.114;2023-04-10T00:30:20;3.03;;;2.45;;
19621;SDS011;9958;33.196;-97.114;2023-04-10T00:32:48;2.65;;;2.10;;
19621;SDS011;9958;33.196;-97.114;2023-04-10T00:35:17;3.50;;;2.95;;
19621;SDS011;9958;33.196;-97.114;2023-04-10T00:37:45;4.05;;;2.53;;
19621;SDS011;9958;33.196;-97.114;2023-04-10T00:40:16;2.78;;;2.40;;
19621;SDS011;9958;33.196;-97.114;2023-04-10T00:42:44;2.65;;;2.42;;
19621;SDS011;9958;33.196;-97.114;2023-04-10T00:45:12;3.88;;;2.60;;
19621;SDS011;9958;33.196;-97.114;2023-04-10T00:47:41;2.67;;;2.47;;
19621;SDS011;9958;33.196;-97.114;2023-04-10T00:50:09;2.60;;;2.40;;
19621;SDS011;9958;33.196;-97.114;2023-04-10T00:52:38;3.05;;;2.78;;
19621;SDS011;9958;33.196;-97.114;2023-04-10T00:55:07;2.72;;;2.50;;
19621;SDS011;9958;33.196;-97.114;2023-04-10T00:57:38;3.78;;;2.67;;
19621;SDS011;9958;33.196;-97.114;2023-04-10T01:00:10;3.10;;;2.70;;
19621;SDS011;9958;33.196;-97.114;2023-04-10T01:02:39;4.82;;;2.40;;
19621;SDS011;9958;33.196;-97.114;2023-04-10T01:05:08;3.65;;;2.97;;
19621;SDS011;9958;33.196;-97.114;2023-04-10T01:07:43;3.30;;;2.90;;
19621;SDS011;9958;33.196;-97.114;2023-04-10T01:10:22;2.40;;;2.15;;
19621;SDS011;9958;33.196;-97.114;2023-04-10T01:13:00;6.55;;;2.88;;
19621;SDS011;9958;33.196;-97.114;2023-04-10T01:15:36;2.88;;;2.58;;
19621;SDS011;9958;33.196;-97.114;2023-04-10T01:18:10;3.22;;;2.83;;
19621;SDS011;9958;33.196;-97.114;2023-04-10T01:20:42;2.72;;;2.33;;
19621;SDS011;9958;33.196;-97.114;2023-04-10T01:26:08;4.13;;;2.75;;
19621;SDS011;9958;33.196;-97.114;2023-04-10T01:28:52;3.05;;;2.45;;
19621;SDS011;9958;33.196;-97.114;2023-04-10T01:31:36;2.85;;;2.10;;
19621;SDS011;9958;33.196;-97.114;2023-04-10T01:34:09;4.07;;;2.50;;
19621;SDS011;9958;33.196;-97.114;2023-04-10T01:36:44;2.40;;;2.20;;
19621;SDS011;9958;33.196;-97.114;2023-04-10T01:39:17;3.83;;;2.40;;
19621;SDS011;9958;33.196;-97.114;2023-04-10T01:41:47;2.65;;;2.42;;
19621;SDS011;9958;33.196;-97.114;2023-04-10T01:44:20;2.58;;;2.35;;
19621;SDS011;9958;33.196;-97.114;2023-04-10T01:46:52;4.00;;;3.20;;
19621;SDS011;9958;33.196;-97.114;2023-04-10T01:49:22;3.35;;;2.85;;
19621;SDS011;9958;33.196;-97.114;2023-04-10T01:51:52;5.22;;;3.10;;
19621;SDS011;9958;33.196;-97.114;2023-04-10T01:54:23;3.47;;;2.80;;
19621;SDS011;9958;33.196;-97.114;2023-04-10T01:56:52;4.85;;;3.22;;
19621;SDS011;9958;33.196;-97.114;2023-04-10T01:59:22;3.53;;;2.83;;
19621;SDS011;9958;33.196;-97.114;2023-04-10T02:01:54;6.65;;;2.60;;
19621;SDS011;9958;33.196;-97.114;2023-04-10T02:04:23;3.25;;;2.90;;
19621;SDS011;9958;33.196;-97.114;2023-04-10T02:06:56;3.03;;;2.60;;
19621;SDS011;9958;33.196;-97.114;2023-04-10T02:09:32;4.00;;;3.08;;
19621;SDS011;9958;33.196;-97.114;2023-04-10T02:12:09;2.88;;;2.67;;
19621;SDS011;9958;33.196;-97.114;2023-04-10T02:14:44;4.70;;;3.38;;
19621;SDS011;9958;33.196;-97.114;2023-04-10T02:17:13;4.18;;;3.22;;
19621;SDS011;9958;33.196;-97.114;2023-04-10T02:19:46;3.67;;;3.30;;
19621;SDS011;9958;33.196;-97.114;2023-04-10T02:22:17;4.90;;;3.30;;
19621;SDS011;9958;33.196;-97.114;2023-04-10T02:24:46;3.63;;;3.22;;
19621;SDS011;9958;33.196;-97.114;2023-04-10T02:27:16;3.88;;;3.22;;
19621;SDS011;9958;33.196;-97.114;2023-04-10T02:29:55;8.32;;;3.47;;
19621;SDS011;9958;33.196;-97.114;2023-04-10T02:32:24;5.72;;;3.78;;
19621;SDS011;9958;33.196;-97.114;2023-04-10T02:34:53;8.50;;;3.80;;
19621;SDS011;9958;33.196;-97.114;2023-04-10T02:37:22;3.88;;;3.58;;
19621;SDS011;9958;33.196;-97.114;2023-04-10T02:39:50;3.97;;;3.20;;
19621;SDS011;9958;33.196;-97.114;2023-04-10T02:42:19;5.30;;;3.38;;
19621;SDS011;9958;33.196;-97.114;2023-04-10T02:44:47;3.00;;;2.70;;
19621;SDS011;9958;33.196;-97.114;2023-04-10T02:47:17;3.65;;;3.25;;
19621;SDS011;9958;33.196;-97.114;2023-04-10T02:49:45;4.55;;;3.15;;
19621;SDS011;9958;33.196;-97.114;2023-04-10T02:52:14;4.45;;;3.70;;
19621;SDS011;9958;33.196;-97.114;2023-04-10T02:54:42;3.78;;;3.33;;
19621;SDS011;9958;33.196;-97.114;2023-04-10T02:57:10;6.47;;;3.42;;
19621;SDS011;9958;33.196;-97.114;2023-04-10T02:59:39;5.65;;;3.45;;
19621;SDS011;9958;33.196;-97.114;2023-04-10T03:02:07;4.45;;;3.25;;
19621;SDS011;9958;33.196;-97.114;2023-04-10T03:04:38;6.93;;;3.83;;
19621;SDS011;9958;33.196;-97.114;2023-04-10T03:07:06;4.78;;;3.83;;
19621;SDS011;9958;33.196;-97.114;2023-04-10T03:09:34;4.78;;;3.40;;
19621;SDS011;9958;33.196;-97.114;2023-04-10T03:12:03;4.55;;;3.80;;
19621;SDS011;9958;33.196;-97.114;2023-04-10T03:14:31;6.78;;;4.05;;
19621;SDS011;9958;33.196;-97.114;2023-04-10T03:16:59;6.20;;;3.60;;
19621;SDS011;9958;33.196;-97.114;2023-04-10T03:19:28;4.72;;;3.88;;
19621;SDS011;9958;33.196;-97.114;2023-04-10T03:21:58;4.88;;;3.60;;
19621;SDS011;9958;33.196;-97.114;2023-04-10T03:24:26;5.32;;;3.63;;
19621;SDS011;9958;33.196;-97.114;2023-04-10T03:26:55;5.50;;;3.45;;
19621;SDS011;9958;33.196;-97.114;2023-04-10T03:29:23;5.00;;;3.60;;
19621;SDS011;9958;33.196;-97.114;2023-04-10T03:31:51;3.70;;;3.40;;
19621;SDS011;9958;33.196;-97.114;2023-04-10T03:34:20;4.10;;;3.42;;
19621;SDS011;9958;33.196;-97.114;2023-04-10T03:36:48;5.07;;;3.60;;
19621;SDS011;9958;33.196;-97.114;2023-04-10T03:39:18;4.55;;;3.72;;
19621;SDS011;9958;33.196;-97.114;2023-04-10T03:41:46;3.60;;;3.30;;
19621;SDS011;9958;33.196;-97.114;2023-04-10T03:44:15;6.97;;;3.50;;
19621;SDS011;9958;33.196;-97.114;2023-04-10T03:46:43;5.20;;;4.00;;
19621;SDS011;9958;33.196;-97.114;2023-04-10T03:49:11;5.75;;;3.70;;
19621;SDS011;9958;33.196;-97.114;2023-04-10T03:51:40;4.72;;;3.30;;
19621;SDS011;9958;33.196;-97.114;2023-04-10T03:54:09;4.72;;;3.70;;
19621;SDS011;9958;33.196;-97.114;2023-04-10T03:56:38;5.45;;;4.32;;
19621;SDS011;9958;33.196;-97.114;2023-04-10T03:59:07;6.30;;;3.50;;
19621;SDS011;9958;33.196;-97.114;2023-04-10T04:01:35;4.60;;;3.30;;
19621;SDS011;9958;33.196;-97.114;2023-04-10T04:04:03;5.70;;;3.72;;
19621;SDS011;9958;33.196;-97.114;2023-04-10T04:06:32;4.10;;;3.70;;
19621;SDS011;9958;33.196;-97.114;2023-04-10T04:09:00;5.72;;;3.60;;
19621;SDS011;9958;33.196;-97.114;2023-04-10T04:11:28;4.30;;;3.90;;
19621;SDS011;9958;33.196;-97.114;2023-04-10T04:13:58;3.50;;;3.20;;
19621;SDS011;9958;33.196;-97.114;2023-04-10T04:16:27;5.97;;;3.45;;
19621;SDS011;9958;33.196;-97.114;2023-04-10T04:18:55;3.25;;;2.72;;
19621;SDS011;9958;33.196;-97.114;2023-04-10T04:21:23;3.78;;;3.05;;
19621;SDS011;9958;33.196;-97.114;2023-04-10T04:23:52;4.15;;;3.05;;
19621;SDS011;9958;33.196;-97.114;2023-04-10T04:26:20;3.10;;;2.75;;
19621;SDS011;9958;33.196;-97.114;2023-04-10T04:28:50;3.33;;;2.85;;
19621;SDS011;9958;33.196;-97.114;2023-04-10T04:31:20;3.67;;;3.10;;
19621;SDS011;9958;33.196;-97.114;2023-04-10T04:33:49;3.30;;;3.00;;
19621;SDS011;9958;33.196;-97.114;2023-04-10T04:36:18;3.78;;;2.95;;
19621;SDS011;9958;33.196;-97.114;2023-04-10T04:38:46;4.68;;;2.78;;
19621;SDS011;9958;33.196;-97.114;2023-04-10T04:41:14;3.95;;;2.35;;
19621;SDS011;9958;33.196;-97.114;2023-04-10T04:43:43;3.35;;;2.47;;
19621;SDS011;9958;33.196;-97.114;2023-04-10T04:46:11;4.03;;;2.80;;
19621;SDS011;9958;33.196;-97.114;2023-04-10T04:48:41;2.78;;;2.50;;
19621;SDS011;9958;33.196;-97.114;2023-04-10T04:51:10;4.65;;;2.30;;
19621;SDS011;9958;33.196;-97.114;2023-04-10T04:53:38;2.50;;;2.00;;
19621;SDS011;9958;33.196;-97.114;2023-04-10T04:56:07;2.85;;;2.20;;
19621;SDS011;9958;33.196;-97.114;2023-04-10T04:58:35;2.50;;;2.28;;
19621;SDS011;9958;33.196;-97.114;2023-04-10T05:01:04;3.30;;;2.38;;
19621;SDS011;9958;33.196;-97.114;2023-04-10T05:03:33;3.10;;;2.60;;
19621;SDS011;9958;33.196;-97.114;2023-04-10T05:06:03;2.40;;;2.20;;
19621;SDS011;9958;33.196;-97.114;2023-04-10T05:08:31;2.50;;;2.20;;
19621;SDS011;9958;33.196;-97.114;2023-04-10T05:11:00;3.55;;;2.70;;
19621;SDS011;9958;33.196;-97.114;2023-04-10T05:13:28;3.05;;;2.50;;
19621;SDS011;9958;33.196;-97.114;2023-04-10T05:15:56;3.47;;;2.53;;
19621;SDS011;9958;33.196;-97.114;2023-04-10T05:18:24;3.50;;;2.58;;
19621;SDS011;9958;33.196;-97.114;2023-04-10T05:20:53;4.85;;;2.80;;
19621;SDS011;9958;33.196;-97.114;2023-04-10T05:23:23;3.03;;;2.75;;
19621;SDS011;9958;33.196;-97.114;2023-04-10T05:25:51;3.47;;;2.55;;
19621;SDS011;9958;33.196;-97.114;2023-04-10T05:28:19;2.40;;;2.20;;
19621;SDS011;9958;33.196;-97.114;2023-04-10T05:30:48;2.85;;;2.60;;
19621;SDS011;9958;33.196;-97.114;2023-04-10T05:33:16;2.83;;;2.40;;
19621;SDS011;9958;33.196;-97.114;2023-04-10T05:35:44;5.20;;;2.15;;
19621;SDS011;9958;33.196;-97.114;2023-04-10T05:38:13;3.47;;;2.30;;
19621;SDS011;9958;33.196;-97.114;2023-04-10T05:40:45;2.58;;;2.22;;
19621;SDS011;9958;33.196;-97.114;2023-04-10T05:43:13;3.00;;;2.30;;
19621;SDS011;9958;33.196;-97.114;2023-04-10T05:45:42;2.25;;;2.05;;
19621;SDS011;9958;33.196;-97.114;2023-04-10T05:48:11;2.58;;;2.38;;
19621;SDS011;9958;33.196;-97.114;2023-04-10T05:50:39;2.45;;;2.08;;
19621;SDS011;9958;33.196;-97.114;2023-04-10T05:53:09;2.28;;;2.15;;
19621;SDS011;9958;33.196;-97.114;2023-04-10T05:55:40;2.33;;;2.13;;
19621;SDS011;9958;33.196;-97.114;2023-04-10T05:58:09;2.63;;;2.33;;
19621;SDS011;9958;33.196;-97.114;2023-04-10T06:00:38;2.20;;;2.00;;
19621;SDS011;9958;33.196;-97.114;2023-04-10T06:03:06;2.38;;;2.00;;
19621;SDS011;9958;33.196;-97.114;2023-04-10T06:05:34;2.42;;;2.22;;
19621;SDS011;9958;33.196;-97.114;2023-04-10T06:08:03;3.03;;;2.53;;
19621;SDS011;9958;33.196;-97.114;2023-04-10T06:10:31;3.58;;;2.17;;
19621;SDS011;9958;33.196;-97.114;2023-04-10T06:13:00;2.83;;;2.53;;
19621;SDS011;9958;33.196;-97.114;2023-04-10T06:15:30;2.40;;;2.20;;
19621;SDS011;9958;33.196;-97.114;2023-04-10T06:17:58;1.90;;;1.80;;
19621;SDS011;9958;33.196;-97.114;2023-04-10T06:20:26;2.85;;;2.40;;
19621;SDS011;9958;33.196;-97.114;2023-04-10T06:22:55;2.40;;;2.20;;
19621;SDS011;9958;33.196;-97.114;2023-04-10T06:25:24;2.33;;;2.13;;
19621;SDS011;9958;33.196;-97.114;2023-04-10T06:27:53;2.00;;;1.90;;
19621;SDS011;9958;33.196;-97.114;2023-04-10T06:30:21;2.95;;;2.17;;
19621;SDS011;9958;33.196;-97.114;2023-04-10T06:32:51;2.67;;;2.17;;
19621;SDS011;9958;33.196;-97.114;2023-04-10T06:35:19;2.42;;;2.08;;
19621;SDS011;9958;33.196;-97.114;2023-04-10T06:37:48;2.50;;;2.30;;
19621;SDS011;9958;33.196;-97.114;2023-04-10T06:40:16;3.88;;;2.20;;
19621;SDS011;9958;33.196;-97.114;2023-04-10T06:42:45;2.40;;;2.20;;
19621;SDS011;9958;33.196;-97.114;2023-04-10T06:45:13;2.42;;;2.30;;
19621;SDS011;9958;33.196;-97.114;2023-04-10T06:47:41;3.30;;;2.30;;
19621;SDS011;9958;33.196;-97.114;2023-04-10T06:50:11;2.30;;;2.10;;
19621;SDS011;9958;33.196;-97.114;2023-04-10T06:52:39;2.50;;;2.30;;
19621;SDS011;9958;33.196;-97.114;2023-04-10T06:55:08;2.30;;;2.10;;
19621;SDS011;9958;33.196;-97.114;2023-04-10T06:57:37;5.10;;;2.20;;
19621;SDS011;9958;33.196;-97.114;2023-04-10T07:00:06;3.15;;;2.30;;
19621;SDS011;9958;33.196;-97.114;2023-04-10T07:02:35;2.55;;;2.35;;
19621;SDS011;9958;33.196;-97.114;2023-04-10T07:05:03;2.90;;;2.42;;
19621;SDS011;9958;33.196;-97.114;2023-04-10T07:07:34;2.20;;;2.00;;
19621;SDS011;9958;33.196;-97.114;2023-04-10T07:10:02;2.20;;;2.00;;
19621;SDS011;9958;33.196;-97.114;2023-04-10T07:12:31;2.90;;;2.20;;
19621;SDS011;9958;33.196;-97.114;2023-04-10T07:14:59;2.30;;;1.98;;
19621;SDS011;9958;33.196;-97.114;2023-04-10T07:17:28;2.55;;;2.22;;
19621;SDS011;9958;33.196;-97.114;2023-04-10T07:19:56;2.10;;;2.00;;
19621;SDS011;9958;33.196;-97.114;2023-04-10T07:22:24;3.47;;;2.53;;
19621;SDS011;9958;33.196;-97.114;2023-04-10T07:24:54;2.35;;;2.15;;
19621;SDS011;9958;33.196;-97.114;2023-04-10T07:27:23;2.63;;;2.28;;
19621;SDS011;9958;33.196;-97.114;2023-04-10T07:29:53;3.15;;;2.78;;
19621;SDS011;9958;33.196;-97.114;2023-04-10T07:32:22;2.50;;;2.30;;
19621;SDS011;9958;33.196;-97.114;2023-04-10T07:34:50;3.33;;;2.55;;
19621;SDS011;9958;33.196;-97.114;2023-04-10T07:37:18;3.22;;;2.40;;
19621;SDS011;9958;33.196;-97.114;2023-04-10T07:39:47;3.97;;;2.40;;
19621;SDS011;9958;33.196;-97.114;2023-04-10T07:42:17;3.40;;;2.38;;
19621;SDS011;9958;33.196;-97.114;2023-04-10T07:44:45;2.13;;;1.92;;
19621;SDS011;9958;33.196;-97.114;2023-04-10T07:47:13;2.78;;;2.40;;
19621;SDS011;9958;33.196;-97.114;2023-04-10T07:49:42;3.88;;;2.45;;
19621;SDS011;9958;33.196;-97.114;2023-04-10T07:52:10;2.42;;;2.22;;
19621;SDS011;9958;33.196;-97.114;2023-04-10T07:54:39;2.95;;;2.58;;
19621;SDS011;9958;33.196;-97.114;2023-04-10T07:57:07;2.95;;;2.30;;
19621;SDS011;9958;33.196;-97.114;2023-04-10T07:59:37;2.47;;;2.28;;
19621;SDS011;9958;33.196;-97.114;2023-04-10T08:02:05;4.50;;;2.60;;
19621;SDS011;9958;33.196;-97.114;2023-04-10T08:04:34;2.55;;;2.30;;
19621;SDS011;9958;33.196;-97.114;2023-04-10T08:07:02;2.22;;;2.03;;
19621;SDS011;9958;33.196;-97.114;2023-04-10T08:09:30;2.83;;;2.47;;
19621;SDS011;9958;33.196;-97.114;2023-04-10T08:11:59;2.97;;;2.67;;
19621;SDS011;9958;33.196;-97.114;2023-04-10T08:14:27;2.92;;;2.50;;
19621;SDS011;9958;33.196;-97.114;2023-04-10T08:16:57;2.75;;;2.50;;
19621;SDS011;9958;33.196;-97.114;2023-04-10T08:19:25;3.67;;;2.30;;
19621;SDS011;9958;33.196;-97.114;2023-04-10T08:21:54;2.80;;;2.60;;
19621;SDS011;9958;33.196;-97.114;2023-04-10T08:24:22;3.80;;;2.78;;
19621;SDS011;9958;33.196;-97.114;2023-04-10T08:26:50;2.42;;;2.25;;
19621;SDS011;9958;33.196;-97.114;2023-04-10T08:29:18;2.67;;;2.47;;
19621;SDS011;9958;33.196;-97.114;2023-04-10T08:31:47;2.70;;;2.50;;
19621;SDS011;9958;33.196;-97.114;2023-04-10T08:34:17;2.60;;;2.17;;
19621;SDS011;9958;33.196;-97.114;2023-04-10T08:36:45;3.25;;;2.95;;
19621;SDS011;9958;33.196;-97.114;2023-04-10T08:39:14;3.38;;;2.60;;
19621;SDS011;9958;33.196;-97.114;2023-04-10T08:41:42;3.60;;;2.63;;
19621;SDS011;9958;33.196;-97.114;2023-04-10T08:44:11;2.65;;;2.42;;
19621;SDS011;9958;33.196;-97.114;2023-04-10T08:46:40;2.60;;;2.40;;
19621;SDS011;9958;33.196;-97.114;2023-04-10T08:49:10;3.08;;;2.47;;
19621;SDS011;9958;33.196;-97.114;2023-04-10T08:51:51;2.90;;;2.60;;
19621;SDS011;9958;33.196;-97.114;2023-04-10T08:54:24;3.90;;;2.50;;
19621;SDS011;9958;33.196;-97.114;2023-04-10T08:56:54;2.53;;;2.33;;
19621;SDS011;9958;33.196;-97.114;2023-04-10T08:59:26;2.63;;;2.42;;
19621;SDS011;9958;33.196;-97.114;2023-04-10T09:01:55;2.50;;;2.28;;
19621;SDS011;9958;33.196;-97.114;2023-04-10T09:04:26;2.63;;;2.40;;
19621;SDS011;9958;33.196;-97.114;2023-04-10T09:06:54;2.72;;;2.53;;
19621;SDS011;9958;33.196;-97.114;2023-04-10T09:09:23;3.53;;;2.50;;
19621;SDS011;9958;33.196;-97.114;2023-04-10T09:11:55;2.95;;;2.70;;
19621;SDS011;9958;33.196;-97.114;2023-04-10T09:14:25;3.60;;;2.80;;
19621;SDS011;9958;33.196;-97.114;2023-04-10T09:17:09;5.20;;;2.92;;
19621;SDS011;9958;33.196;-97.114;2023-04-10T09:19:40;3.03;;;2.83;;
19621;SDS011;9958;33.196;-97.114;2023-04-10T09:22:09;3.10;;;2.80;;
19621;SDS011;9958;33.196;-97.114;2023-04-10T09:24:38;4.10;;;3.30;;
19621;SDS011;9958;33.196;-97.114;2023-04-10T09:27:07;4.60;;;3.45;;
19621;SDS011;9958;33.196;-97.114;2023-04-10T09:29:40;3.03;;;2.83;;
19621;SDS011;9958;33.196;-97.114;2023-04-10T09:32:10;3.45;;;2.90;;
19621;SDS011;9958;33.196;-97.114;2023-04-10T09:34:52;4.38;;;3.20;;
19621;SDS011;9958;33.196;-97.114;2023-04-10T09:37:29;4.07;;;3.13;;
19621;SDS011;9958;33.196;-97.114;2023-04-10T09:39:58;4.80;;;3.50;;
19621;SDS011;9958;33.196;-97.114;2023-04-10T09:42:30;4.38;;;3.72;;
19621;SDS011;9958;33.196;-97.114;2023-04-10T09:44:59;4.63;;;3.97;;
19621;SDS011;9958;33.196;-97.114;2023-04-10T09:47:28;3.80;;;3.22;;
19621;SDS011;9958;33.196;-97.114;2023-04-10T09:49:59;4.15;;;3.38;;
19621;SDS011;9958;33.196;-97.114;2023-04-10T09:52:28;4.22;;;3.17;;
19621;SDS011;9958;33.196;-97.114;2023-04-10T09:54:57;8.55;;;3.35;;
19621;SDS011;9958;33.196;-97.114;2023-04-10T09:57:28;4.10;;;3.63;;
19621;SDS011;9958;33.196;-97.114;2023-04-10T09:59:57;3.92;;;3.45;;
19621;SDS011;9958;33.196;-97.114;2023-04-10T10:02:27;5.43;;;3.80;;
19621;SDS011;9958;33.196;-97.114;2023-04-10T10:04:56;4.72;;;4.13;;
19621;SDS011;9958;33.196;-97.114;2023-04-10T10:07:26;4.57;;;3.88;;
19621;SDS011;9958;33.196;-97.114;2023-04-10T10:09:56;4.97;;;3.97;;
19621;SDS011;9958;33.196;-97.114;2023-04-10T10:12:25;6.20;;;4.00;;
19621;SDS011;9958;33.196;-97.114;2023-04-10T10:15:06;5.22;;;3.65;;
19621;SDS011;9958;33.196;-97.114;2023-04-10T10:17:41;5.00;;;3.88;;
19621;SDS011;9958;33.196;-97.114;2023-04-10T10:20:14;5.15;;;4.05;;
19621;SDS011;9958;33.196;-97.114;2023-04-10T10:22:44;4.03;;;3.65;;
19621;SDS011;9958;33.196;-97.114;2023-04-10T10:25:13;5.35;;;3.92;;
19621;SDS011;9958;33.196;-97.114;2023-04-10T10:27:42;4.40;;;3.75;;
19621;SDS011;9958;33.196;-97.114;2023-04-10T10:30:12;5.50;;;3.78;;
19621;SDS011;9958;33.196;-97.114;2023-04-10T10:32:43;6.03;;;4.28;;
19621;SDS011;9958;33.196;-97.114;2023-04-10T10:35:14;3.90;;;3.38;;
19621;SDS011;9958;33.196;-97.114;2023-04-10T10:37:43;4.97;;;3.90;;
19621;SDS011;9958;33.196;-97.114;2023-04-10T10:40:15;4.28;;;3.28;;
19621;SDS011;9958;33.196;-97.114;2023-04-10T10:42:49;4.60;;;3.88;;
19621;SDS011;9958;33.196;-97.114;2023-04-10T10:45:22;4.85;;;4.10;;
19621;SDS011;9958;33.196;-97.114;2023-04-10T10:47:56;4.80;;;3.95;;
19621;SDS011;9958;33.196;-97.114;2023-04-10T10:50:26;5.38;;;3.97;;
19621;SDS011;9958;33.196;-97.114;2023-04-10T10:53:30;6.05;;;4.28;;
19621;SDS011;9958;33.196;-97.114;2023-04-10T10:56:12;5.60;;;4.20;;
19621;SDS011;9958;33.196;-97.114;2023-04-10T10:59:00;3.60;;;3.30;;
19621;SDS011;9958;33.196;-97.114;2023-04-10T11:01:29;7.63;;;4.45;;
19621;SDS011;9958;33.196;-97.114;2023-04-10T11:03:57;6.15;;;4.07;;
19621;SDS011;9958;33.196;-97.114;2023-04-10T11:12:18;6.00;;;4.82;;
19621;SDS011;9958;33.196;-97.114;2023-04-10T11:17:47;6.90;;;4.80;;
19621;SDS011;9958;33.196;-97.114;2023-04-10T11:20:17;6.13;;;4.50;;
19621;SDS011;9958;33.196;-97.114;2023-04-10T11:23:10;6.68;;;4.65;;
19621;SDS011;9958;33.196;-97.114;2023-04-10T11:25:45;5.68;;;4.18;;
19621;SDS011;9958;33.196;-97.114;2023-04-10T11:28:33;5.30;;;3.83;;
19621;SDS011;9958;33.196;-97.114;2023-04-10T11:31:15;6.57;;;4.07;;
19621;SDS011;9958;33.196;-97.114;2023-04-10T11:33:45;5.60;;;4.60;;
19621;SDS011;9958;33.196;-97.114;2023-04-10T11:36:14;5.22;;;4.70;;
19621;SDS011;9958;33.196;-97.114;2023-04-10T11:38:57;5.30;;;4.45;;
19621;SDS011;9958;33.196;-97.114;2023-04-10T11:41:27;7.00;;;4.47;;
19621;SDS011;9958;33.196;-97.114;2023-04-10T11:43:56;6.10;;;4.72;;
19621;SDS011;9958;33.196;-97.114;2023-04-10T11:46:25;5.50;;;4.10;;
19621;SDS011;9958;33.196;-97.114;2023-04-10T11:48:54;7.60;;;4.93;;
19621;SDS011;9958;33.196;-97.114;2023-04-10T11:51:25;5.45;;;4.10;;
19621;SDS011;9958;33.196;-97.114;2023-04-10T11:54:05;7.35;;;4.85;;
19621;SDS011;9958;33.196;-97.114;2023-04-10T11:56:35;5.72;;;4.63;;
19621;SDS011;9958;33.196;-97.114;2023-04-10T11:59:04;7.40;;;5.03;;
19621;SDS011;9958;33.196;-97.114;2023-04-10T12:01:35;6.72;;;5.07;;
19621;SDS011;9958;33.196;-97.114;2023-04-10T12:04:05;7.88;;;5.28;;
19621;SDS011;9958;33.196;-97.114;2023-04-10T12:06:42;8.30;;;4.93;;
19621;SDS011;9958;33.196;-97.114;2023-04-10T12:09:14;7.45;;;5.20;;
19621;SDS011;9958;33.196;-97.114;2023-04-10T12:11:49;6.85;;;4.93;;
19621;SDS011;9958;33.196;-97.114;2023-04-10T12:14:19;6.32;;;4.43;;
19621;SDS011;9958;33.196;-97.114;2023-04-10T12:16:48;6.05;;;4.60;;
19621;SDS011;9958;33.196;-97.114;2023-04-10T12:19:17;5.28;;;4.40;;
19621;SDS011;9958;33.196;-97.114;2023-04-10T12:21:47;7.65;;;4.63;;
19621;SDS011;9958;33.196;-97.114;2023-04-10T12:27:14;8.30;;;5.15;;
19621;SDS011;9958;33.196;-97.114;2023-04-10T12:29:43;7.47;;;5.53;;
19621;SDS011;9958;33.196;-97.114;2023-04-10T12:32:12;7.43;;;5.00;;
19621;SDS011;9958;33.196;-97.114;2023-04-10T12:34:40;6.53;;;4.97;;
19621;SDS011;9958;33.196;-97.114;2023-04-10T12:37:15;8.00;;;5.40;;
19621;SDS011;9958;33.196;-97.114;2023-04-10T12:39:45;6.75;;;5.07;;
19621;SDS011;9958;33.196;-97.114;2023-04-10T12:42:14;8.73;;;5.60;;
19621;SDS011;9958;33.196;-97.114;2023-04-10T12:44:50;7.70;;;5.72;;
19621;SDS011;9958;33.196;-97.114;2023-04-10T12:47:19;9.43;;;5.75;;
19621;SDS011;9958;33.196;-97.114;2023-04-10T12:50:07;6.95;;;5.30;;
19621;SDS011;9958;33.196;-97.114;2023-04-10T12:52:36;7.07;;;4.82;;
19621;SDS011;9958;33.196;-97.114;2023-04-10T12:55:08;9.80;;;5.78;;
19621;SDS011;9958;33.196;-97.114;2023-04-10T12:57:38;6.28;;;4.72;;
19621;SDS011;9958;33.196;-97.114;2023-04-10T13:00:07;6.88;;;4.15;;
19621;SDS011;9958;33.196;-97.114;2023-04-10T13:02:37;6.40;;;5.20;;
19621;SDS011;9958;33.196;-97.114;2023-04-10T13:05:06;6.28;;;5.32;;
19621;SDS011;9958;33.196;-97.114;2023-04-10T13:07:35;8.25;;;6.28;;
19621;SDS011;9958;33.196;-97.114;2023-04-10T13:10:04;6.78;;;5.15;;
19621;SDS011;9958;33.196;-97.114;2023-04-10T13:12:35;7.38;;;5.30;;
19621;SDS011;9958;33.196;-97.114;2023-04-10T13:15:05;6.85;;;5.05;;
19621;SDS011;9958;33.196;-97.114;2023-04-10T13:17:35;10.27;;;6.30;;
19621;SDS011;9958;33.196;-97.114;2023-04-10T13:20:03;8.27;;;5.15;;
19621;SDS011;9958;33.196;-97.114;2023-04-10T13:22:32;7.07;;;5.78;;
19621;SDS011;9958;33.196;-97.114;2023-04-10T13:25:01;8.75;;;6.03;;
19621;SDS011;9958;33.196;-97.114;2023-04-10T13:27:30;7.70;;;6.10;;
19621;SDS011;9958;33.196;-97.114;2023-04-10T13:30:00;9.98;;;5.78;;
19621;SDS011;9958;33.196;-97.114;2023-04-10T13:32:28;9.23;;;5.47;;
19621;SDS011;9958;33.196;-97.114;2023-04-10T13:34:57;9.68;;;5.88;;
19621;SDS011;9958;33.196;-97.114;2023-04-10T13:37:25;8.48;;;5.38;;
19621;SDS011;9958;33.196;-97.114;2023-04-10T13:39:53;7.97;;;6.07;;
19621;SDS011;9958;33.196;-97.114;2023-04-10T13:42:22;8.82;;;5.40;;
19621;SDS011;9958;33.196;-97.114;2023-04-10T13:44:50;8.35;;;5.53;;
19621;SDS011;9958;33.196;-97.114;2023-04-10T13:47:20;7.15;;;5.28;;
19621;SDS011;9958;33.196;-97.114;2023-04-10T13:49:48;7.43;;;5.53;;
19621;SDS011;9958;33.196;-97.114;2023-04-10T13:52:17;6.35;;;5.20;;
19621;SDS011;9958;33.196;-97.114;2023-04-10T13:54:45;8.15;;;5.22;;
19621;SDS011;9958;33.196;-97.114;2023-04-10T13:57:13;7.85;;;5.65;;
19621;SDS011;9958;33.196;-97.114;2023-04-10T13:59:41;6.70;;;4.85;;
19621;SDS011;9958;33.196;-97.114;2023-04-10T14:02:10;9.50;;;5.55;;
19621;SDS011;9958;33.196;-97.114;2023-04-10T14:04:40;6.22;;;5.03;;
19621;SDS011;9958;33.196;-97.114;2023-04-10T14:07:10;6.10;;;4.75;;
19621;SDS011;9958;33.196;-97.114;2023-04-10T14:09:38;6.82;;;4.95;;
19621;SDS011;9958;33.196;-97.114;2023-04-10T14:12:07;6.15;;;3.95;;
19621;SDS011;9958;33.196;-97.114;2023-04-10T14:14:36;7.22;;;4.60;;
19621;SDS011;9958;33.196;-97.114;2023-04-10T14:17:04;10.13;;;4.35;;
19621;SDS011;9958;33.196;-97.114;2023-04-10T14:19:33;5.50;;;4.40;;
19621;SDS011;9958;33.196;-97.114;2023-04-10T14:22:03;5.07;;;4.15;;
19621;SDS011;9958;33.196;-97.114;2023-04-10T14:24:32;8.60;;;5.13;;
19621;SDS011;9958;33.196;-97.114;2023-04-10T14:27:00;6.90;;;5.28;;
19621;SDS011;9958;33.196;-97.114;2023-04-10T14:29:28;6.75;;;5.35;;
19621;SDS011;9958;33.196;-97.114;2023-04-10T14:31:57;7.55;;;4.57;;
19621;SDS011;9958;33.196;-97.114;2023-04-10T14:34:25;6.90;;;4.30;;
19621;SDS011;9958;33.196;-97.114;2023-04-10T14:36:54;9.50;;;4.93;;
19621;SDS011;9958;33.196;-97.114;2023-04-10T14:39:24;5.15;;;4.53;;
19621;SDS011;9958;33.196;-97.114;2023-04-10T14:41:53;5.30;;;4.80;;
19621;SDS011;9958;33.196;-97.114;2023-04-10T14:44:21;5.05;;;4.18;;
19621;SDS011;9958;33.196;-97.114;2023-04-10T14:46:49;5.38;;;4.30;;
19621;SDS011;9958;33.196;-97.114;2023-04-10T14:49:18;7.03;;;4.20;;
19621;SDS011;9958;33.196;-97.114;2023-04-10T14:51:46;4.78;;;4.32;;
19621;SDS011;9958;33.196;-97.114;2023-04-10T14:54:14;4.45;;;4.05;;
19621;SDS011;9958;33.196;-97.114;2023-04-10T14:56:47;5.10;;;4.60;;
19621;SDS011;9958;33.196;-97.114;2023-04-10T14:59:16;4.55;;;4.03;;
19621;SDS011;9958;33.196;-97.114;2023-04-10T15:01:44;4.95;;;4.20;;
19621;SDS011;9958;33.196;-97.114;2023-04-10T15:04:13;3.95;;;3.55;;